x

8447387 - Borden Flats Light At Fall River, Ma (bltm3) Weather Station

6:18 - Fri 26th May 2017 All times are EDT. -4 hours from GMT.

  • Wind
    9mph, 11mph gusts
  • Luft Temp 52°f
  • Sea Pressure 996.8mb
  • 8447387 - Borden Flats Light At Fall River, Ma
  • 8447387 - Borden Flats Light At Fall River, Ma

More Historic Weather Station data

Upgrade to MSW Pro to gain access to the past 30 days of data for over 8000 Wavebouys and Weather Stations around the globe.

Join Pro

Comparision Forecast

View Surf forecast
   
Fr 05/26 6:18 9 11 mph 996.8mb 52f
6:12 9 10 mph 996.8mb 52f
6:06 8 10 mph 996.7mb 53f
6:00 10 11 mph 996.7mb 52f
5:54 10 14 mph 996.8mb 52f
5:48 9 13 mph 996.9mb 52f
5:42 10 13 mph 997mb 52f
5:36 7 10 mph 997.1mb 52f
5:30 9 13 mph 996.9mb 52f
5:24 14 17 mph 996.8mb 52f
5:18 14 17 mph 996.8mb 52f
5:12 11 14 mph 997mb 52f
5:06 10 14 mph 997mb 52f
5:00 14 15 mph 996.9mb 53f
4:48 14 17 mph 996.9mb 53f
4:42 14 17 mph 996.9mb 53f
4:36 14 17 mph 996.7mb 53f
4:30 14 16 mph 996.6mb 53f
4:24 14 17 mph 996.6mb 53f
4:18 11 14 mph 996.7mb 53f
4:12 10 13 mph 997mb 53f
4:06 10 13 mph 997.2mb 53f
4:00 8 9 mph 997.6mb 53f
3:54 5 9 mph 997.8mb 53f
3:48 6 10 mph 997.7mb 53f
3:42 9 11 mph 997.5mb 53f
3:36 9 13 mph 997.4mb 53f
3:30 11 14 mph 997.3mb 53f
3:24 10 14 mph 997.1mb 53f
3:18 11 14 mph 997.1mb 53f
3:12 11 15 mph 997mb 53f
3:06 14 17 mph 997.1mb 53f
3:00 13 15 mph 997mb 53f
2:48 17 22 mph 997mb 53f
2:42 17 22 mph 997mb 53f
2:36 18 22 mph 996.9mb 53f
2:30 14 18 mph 997.1mb 53f
2:24 14 20 mph 997.2mb 53f
2:18 16 18 mph 997.7mb 53f
2:12 14 16 mph 998.1mb 53f
2:06 14 17 mph 998.3mb 53f
2:00 13 16 mph 998.4mb 53f
1:54 10 13 mph 998.7mb 53f
1:48 8 10 mph 999mb 53f
1:42 9 13 mph 998.9mb 53f
1:36 10 13 mph 998.7mb 53f
1:30 13 16 mph 998.5mb 53f
1:24 10 13 mph 998.8mb 53f
1:18 10 14 mph 998.8mb 53f
1:12 8 9 mph 999mb 53f
1:06 9 13 mph 999mb 54f
1:00 9 11 mph 998.9mb 54f
12:54 7 9 mph 999.1mb 54f
12:48 5 7 mph 999.5mb 54f
12:42 6 8 mph 999.3mb 54f
12:36 8 10 mph 999.2mb 54f
12:30 7 8 mph 999.8mb 54f
12:24 5 6 mph 999.9mb 54f
12:18 1 8 mph 999.9mb 54f
12:12 13 15 mph 999.2mb 54f
12:06 9 17 mph 999.1mb 54f
12:00 18 26 mph 998.1mb 54f
Do 05/25 11:54 14 21 mph 1000mb 54f
11:48 17 22 mph 998.8mb 54f
11:42 15 18 mph 999mb 54f
11:36 18 22 mph 999mb 54f
11:30 15 18 mph 999.7mb 54f
11:24 14 16 mph 999.6mb 54f
11:18 15 20 mph 999.6mb 54f
11:12 15 17 mph 999.7mb 54f
11:06 13 17 mph 1000mb 54f
11:00 10 14 mph 1000.5mb 54f
10:54 11 15 mph 1000.6mb 54f
10:48 13 16 mph 1000.6mb 54f
10:42 11 14 mph 1000.8mb 54f
10:36 11 14 mph 1000.9mb 54f
10:30 15 17 mph 1000.7mb 54f
10:24 15 18 mph 1000.9mb 54f
10:18 15 20 mph 1001mb 54f
10:12 15 17 mph 1001.1mb 54f
10:06 14 17 mph 1001.2mb 54f
10:00 14 16 mph 1001.3mb 54f
9:54 13 16 mph 1001.8mb 54f
9:48 13 15 mph 1001.8mb 54f
9:42 11 15 mph 1002mb 54f
9:36 9 11 mph 1002.2mb 55f
9:30 9 13 mph 1002.1mb 55f
9:24 10 14 mph 1002.1mb 55f
9:18 9 11 mph 1002.2mb 55f
9:12 11 14 mph 1002.1mb 55f
9:06 9 14 mph 1002.3mb 55f
9:00 11 13 mph 1002.3mb 55f
8:54 13 15 mph 1002.1mb 55f
8:48 15 17 mph 1002.1mb 55f
8:42 11 15 mph 1002.4mb 55f
8:36 10 13 mph 1002.5mb 55f
8:30 10 13 mph 1002.5mb 55f
8:24 11 15 mph 1002.5mb 55f
8:18 14 17 mph 1002.4mb 55f
8:12 14 16 mph 1002.4mb 55f
8:06 11 14 mph 1002.5mb 55f
8:00 13 14 mph 1002.5mb 55f
7:54 14 17 mph 1002.4mb 55f
7:48 14 16 mph 1002.3mb 55f
7:42 14 16 mph 1002.3mb 55f
7:36 11 15 mph 1002.5mb 55f
7:30 14 16 mph 1002.5mb 56f
7:24 11 15 mph 1002.7mb 56f
7:18 11 16 mph 1002.9mb 56f
7:12 11 14 mph 1003mb 56f
7:06 14 17 mph 1002.8mb 56f
7:00 13 16 mph 1002.9mb 56f
6:48 9 11 mph 1003.1mb 56f
6:42 10 13 mph 1003.2mb 56f
6:36 11 14 mph 1003.1mb 56f
6:30 11 14 mph 1003.4mb 56f
6:24 13 14 mph 1003.2mb 56f
6:18 9 13 mph 1003.2mb 56f
6:12 10 14 mph 1002.9mb 56f
6:06 10 14 mph 1002.4mb 56f
6:00 15 18 mph 1001.9mb 56f
5:48 14 17 mph 1002mb 56f
5:42 15 20 mph 1002.1mb 56f
5:36 17 21 mph 1002.4mb 56f
5:30 14 16 mph 1003mb 56f
5:24 11 14 mph 1003.2mb 56f
5:18 14 16 mph 1003.3mb 56f
5:12 11 14 mph 1003.5mb 56f
5:06 13 16 mph 1003.2mb 56f
5:00 14 17 mph 1003.2mb 57f
4:54 13 15 mph 1003.2mb 57f
4:48 14 16 mph 1003mb 57f
4:42 16 18 mph 1003mb 57f
4:36 17 20 mph 1003.1mb 57f
4:30 14 17 mph 1003.5mb 57f
4:24 14 18 mph 1003.6mb 57f
4:18 15 18 mph 1003.7mb 57f
4:12 15 17 mph 1003.9mb 57f
4:06 13 16 mph 1003.7mb 57f
4:00 13 15 mph 1003.8mb 57f
3:54 14 18 mph 1003.9mb 57f
3:48 14 16 mph 1003.9mb 57f
3:42 15 20 mph 1003.9mb 57f
3:36 14 16 mph 1004.1mb 57f
3:30 13 20 mph 1004.1mb 57f
3:24 13 15 mph 1004.1mb 57f
3:18 13 15 mph 1004.2mb 57f
3:12 15 17 mph 1004.2mb 57f
3:06 15 17 mph 1004.4mb 57f
3:00 11 15 mph 1004.5mb 57f
2:54 15 18 mph 1004.5mb 57f
2:48 11 15 mph 1004.6mb 57f
2:42 14 17 mph 1004.6mb 57f
2:36 16 21 mph 1004.5mb 57f
2:30 14 17 mph 1004.7mb 57f
2:24 13 15 mph 1005mb 57f
2:18 11 15 mph 1005.1mb 57f
2:12 10 13 mph 1005.1mb 57f
2:06 13 16 mph 1004.8mb 57f
2:00 13 15 mph 1005.1mb 57f
1:54 13 15 mph 1005.1mb 57f
1:48 11 14 mph 1005.2mb 57f
1:42 15 18 mph 1005.1mb 57f
1:36 13 18 mph 1005.1mb 57f
1:30 14 16 mph 1005.4mb 56f
1:24 14 15 mph 1005.5mb 56f
1:18 11 17 mph 1005.8mb 57f
1:12 13 15 mph 1005.7mb 56f
1:06 15 18 mph 1005.7mb 56f
1:00 13 17 mph 1005.9mb 56f
12:54 10 15 mph 1006mb 57f
12:48 15 20 mph 1005.8mb 57f
12:42 14 18 mph 1005.8mb 57f
12:36 11 16 mph 1006.1mb 57f
12:30 14 17 mph 1006.1mb 57f
12:24 17 22 mph 1006.1mb 56f
12:18 14 18 mph 1006.2mb 57f
12:12 15 20 mph 1006mb 57f
12:06 16 21 mph 1006mb 57f
12:00 17 22 mph 1005.9mb 57f
11:54 18 22 mph 1005.9mb 57f
11:48 17 23 mph 1005.9mb 57f
11:42 16 22 mph 1006.2mb 57f
11:36 16 20 mph 1006.3mb 56f
11:30 16 21 mph 1006.6mb 57f
11:24 14 17 mph 1006.9mb 57f
11:18 16 22 mph 1006.9mb 57f
11:12 14 20 mph 1007.1mb 57f
11:06 11 18 mph 1007.2mb 57f
11:00 17 22 mph 1006.6mb 57f
10:54 18 22 mph 1006.2mb 57f
10:48 18 23 mph 1006.2mb 57f
10:42 21 25 mph 1006.1mb 57f
10:36 18 24 mph 1006.6mb 57f
10:30 18 24 mph 1006.8mb 57f
10:24 20 26 mph 1006.7mb 57f
10:18 17 22 mph 1007.1mb 57f
10:12 16 21 mph 1007.4mb 57f
10:06 15 20 mph 1007.8mb 57f
10:00 15 21 mph 1007.8mb 57f
9:54 15 20 mph 1007.8mb 56f
9:48 15 20 mph 1007.9mb 56f
9:42 14 17 mph 1007.9mb 56f
9:36 15 20 mph 1008mb 56f
9:30 15 21 mph 1007.8mb 56f
9:24 18 23 mph 1007.8mb 56f
9:18 17 22 mph 1007.8mb 56f
9:12 17 22 mph 1007.8mb 56f
9:06 17 21 mph 1007.9mb 56f
9:00 17 20 mph 1007.9mb 56f
8:54 17 23 mph 1008.1mb 56f
8:48 15 18 mph 1008.3mb 56f
8:42 14 17 mph 1008.5mb 56f
8:36 15 20 mph 1008.4mb 56f
8:30 14 21 mph 1008.5mb 56f
8:24 14 16 mph 1008.4mb 56f
8:18 14 16 mph 1008.5mb 56f
8:12 11 14 mph 1008.8mb 56f
8:06 10 14 mph 1008.9mb 56f
8:00 11 16 mph 1008.9mb 56f
7:54 10 13 mph 1008.9mb 56f
7:48 11 16 mph 1008.9mb 56f
7:42 11 16 mph 1008.8mb 56f
7:36 11 14 mph 1008.8mb 56f
7:30 11 15 mph 1008.9mb 56f
7:24 11 15 mph 1008.9mb 56f
7:18 8 11 mph 1009.1mb 56f
7:12 10 14 mph 1009mb 56f
7:06 13 16 mph 1008.8mb 56f
7:00 13 16 mph 1008.7mb 56f
6:54 13 16 mph 1008.8mb 56f
6:48 11 15 mph 1008.8mb 56f
6:42 13 16 mph 1008.9mb 56f
6:36 13 15 mph 1008.9mb 55f
6:30 11 14 mph 1009mb 56f
6:24 10 13 mph 1009.2mb 55f
6:18 10 11 mph 1009.2mb 55f
6:12 10 14 mph 1009.2mb 55f
6:06 11 14 mph 1009.2mb 55f
6:00 9 13 mph 1009.4mb 55f
5:54 11 15 mph 1009mb 55f
5:48 11 14 mph 1008.9mb 55f
5:42 11 15 mph 1008.9mb 55f
5:36 9 11 mph 1009.2mb 55f
5:30 9 13 mph 1009mb 55f
5:24 9 11 mph 1009.1mb 55f
5:18 10 11 mph 1009.1mb 55f
5:12 9 10 mph 1009.2mb 55f
5:06 8 11 mph 1009.3mb 55f
5:00 9 10 mph 1009.2mb 55f
4:54 10 13 mph 1009.1mb 55f
4:48 10 13 mph 1009.1mb 55f
4:42 10 14 mph 1009.2mb 55f
4:36 8 10 mph 1009.4mb 55f
4:30 8 10 mph 1009.5mb 55f
4:24 7 8 mph 1009.6mb 54f
4:18 8 10 mph 1009.5mb 54f
4:12 8 10 mph 1009.4mb 54f
4:06 9 10 mph 1009.5mb 54f
4:00 7 9 mph 1009.6mb 54f
3:54 6 7 mph 1009.6mb 54f
3:48 7 8 mph 1009.4mb 54f
3:42 8 9 mph 1009.3mb 54f
3:36 9 10 mph 1009.3mb 54f
3:30 9 10 mph 1009.5mb 54f
3:24 8 9 mph 1009.7mb 54f
3:18 9 10 mph 1009.5mb 54f
3:12 10 13 mph 1009.3mb 54f
3:06 11 14 mph 1009.3mb 54f
3:00 11 13 mph 1009.2mb 54f
2:54 11 13 mph 1009.3mb 54f
2:48 11 14 mph 1009.2mb 55f
2:42 11 13 mph 1009.2mb 55f
2:36 9 10 mph 1009.3mb 55f
2:30 8 9 mph 1009.4mb 55f
2:24 8 10 mph 1009.5mb 55f
2:18 8 9 mph 1009.5mb 55f
2:12 9 10 mph 1009.5mb 55f
2:06 9 10 mph 1009.5mb 55f
2:00 8 9 mph 1009.6mb 55f
1:54 8 9 mph 1009.6mb 55f
1:48 7 9 mph 1009.9mb 55f
1:42 6 7 mph 1010.1mb 55f
1:36 7 8 mph 1010.1mb 55f
1:30 8 9 mph 1010mb 55f
1:24 8 9 mph 1010.3mb 55f
1:18 3 6 mph 1010.5mb 55f
1:12 7 8 mph 1010.5mb 55f
1:06 6 7 mph 1010.5mb 55f
1:00 7 8 mph 1010.6mb 55f
12:54 6 8 mph 1010.5mb 55f
12:48 7 8 mph 1010.4mb 55f
12:42 7 9 mph 1010.4mb 55f
12:36 5 6 mph 1010.6mb 56f
12:30 6 7 mph 1010.6mb 56f
12:24 7 7 mph 1010.5mb 56f
12:18 6 7 mph 1010.4mb 56f
12:12 7 8 mph 1010.4mb 56f
12:06 7 8 mph 1010.4mb 56f
12:00 6 7 mph 1010.5mb 56f
Mi 05/24 11:54 6 7 mph 1010.4mb 56f
11:48 6 6 mph 1010.4mb 56f
11:42 6 7 mph 1010.5mb 56f
11:36 7 8 mph 1010.3mb 56f
11:30 8 10 mph 1010.2mb 56f
11:24 7 8 mph 1010.4mb 57f
11:18 7 8 mph 1010.3mb 57f
11:12 8 9 mph 1010mb 57f
11:06 8 9 mph 1009.9mb 57f
11:00 8 9 mph 1009.8mb 57f
10:54 8 9 mph 1009.8mb 57f
10:48 8 10 mph 1009.8mb 57f
10:42 8 9 mph 1009.9mb 58f
10:36 8 9 mph 1009.9mb 57f
10:30 8 10 mph 1009.8mb 58f
10:24 9 11 mph 1009.8mb 58f
10:18 9 10 mph 1009.9mb 58f
10:12 10 13 mph 1009.8mb 58f
10:06 10 11 mph 1010.1mb 58f
10:00 6 7 mph 1010.2mb 58f
9:54 8 9 mph 1010.2mb 58f
9:48 6 6 mph 1010.4mb 58f
9:42 6 7 mph 1010.3mb 58f
9:36 6 8 mph 1010.2mb 59f
9:30 7 8 mph 1010.2mb 59f
9:24 7 9 mph 1010.3mb 59f
9:18 6 7 mph 1010.4mb 59f
9:12 6 6 mph 1010.2mb 59f
9:06 6 7 mph 1010mb 60f
9:00 7 9 mph 1009.7mb 60f
8:54 7 9 mph 1009.9mb 60f
8:48 6 8 mph 1010mb 60f
8:42 6 7 mph 1009.9mb 60f
8:36 6 6 mph 1009.9mb 60f
8:30 7 8 mph 1009.6mb 60f
8:24 9 11 mph 1009.3mb 60f
8:18 8 9 mph 1009.2mb 60f
8:12 8 11 mph 1009.1mb 61f
8:06 10 14 mph 1008.8mb 61f
8:00 10 14 mph 1008.7mb 61f
7:54 10 14 mph 1008.5mb 61f
7:48 10 13 mph 1008.3mb 62f
7:42 11 13 mph 1008mb 62f
7:36 11 14 mph 1007.8mb 62f
7:30 13 15 mph 1007.9mb 62f
7:24 11 16 mph 1007.8mb 63f
7:18 11 15 mph 1007.7mb 63f
7:12 11 15 mph 1007.7mb 63f
7:06 13 16 mph 1007.9mb 63f
7:00 13 16 mph 1007.8mb 64f
6:54 13 15 mph 1007.9mb 64f
6:48 11 14 mph 1008mb 65f
6:42 13 16 mph 1008mb 64f
6:36 11 14 mph 1008.2mb 65f
6:30 10 13 mph 1008.2mb 65f
6:24 11 15 mph 1008.4mb 65f
6:18 14 17 mph 1008.4mb 65f
6:12 10 14 mph 1008.4mb 65f
6:06 11 15 mph 1008.4mb 64f
6:00 13 15 mph 1008.5mb 64f
5:54 11 13 mph 1008.5mb 65f
5:48 13 15 mph 1008.6mb 65f
5:42 11 13 mph 1008.6mb 65f
5:36 9 11 mph 1008.4mb 65f
5:30 10 13 mph 1008.5mb 65f
5:24 11 13 mph 1008.4mb 65f
5:18 10 11 mph 1008.4mb 65f
5:12 14 15 mph 1008mb 66f
5:06 10 15 mph 1007.9mb 68f
5:00 11 16 mph 1007.8mb 67f
4:54 13 15 mph 1007.6mb 67f
4:48 13 16 mph 1007.6mb 67f
4:42 8 10 mph 1007.4mb 67f
4:36 11 15 mph 1007.3mb 67f
4:30 11 14 mph 1007.3mb 66f
4:24 11 15 mph 1007.4mb 66f
4:18 10 15 mph 1007.5mb 66f
4:12 13 16 mph 1007.4mb 66f
4:06 11 15 mph 1007.2mb 67f
4:00 13 17 mph 1007.2mb 67f
3:54 13 17 mph 1007mb 67f
3:48 13 16 mph 1006.9mb 66f
3:42 11 15 mph 1006.7mb 67f
3:36 13 15 mph 1006.6mb 67f
3:30 13 17 mph 1006.6mb 67f
3:24 16 20 mph 1006.2mb 68f
3:18 11 14 mph 1006.1mb 68f
3:12 13 15 mph 1006.2mb 67f
3:06 14 20 mph 1006.2mb 67f
3:00 14 17 mph 1006.3mb 67f
2:54 13 15 mph 1006.6mb 67f
2:48 15 21 mph 1006.7mb 67f
2:42 7 14 mph 1006.9mb 67f
2:36 15 20 mph 1006.9mb 67f
2:30 11 15 mph 1007.1mb 67f
2:24 11 16 mph 1007.2mb 67f
2:18 13 16 mph 1007.3mb 67f
2:12 11 13 mph 1007.5mb 66f
2:06 11 14 mph 1007.6mb 67f
2:00 9 14 mph 1007.5mb 67f
1:54 11 14 mph 1007.6mb 67f
1:48 10 13 mph 1007.6mb 67f
1:42 10 11 mph 1007.5mb 67f
1:36 5 10 mph 1007.5mb 67f
1:30 10 13 mph 1007.4mb 66f
1:24 10 15 mph 1007.2mb 66f
1:18 10 13 mph 1007.3mb 66f
1:12 8 13 mph 1007.4mb 66f
1:06 9 11 mph 1007.2mb 66f
1:00 7 11 mph 1007.1mb 66f
12:54 9 11 mph 1007.3mb 66f
12:48 6 10 mph 1007.5mb 66f
12:42 10 14 mph 1007.2mb 66f
12:36 9 13 mph 1007.2mb 66f
12:30 10 15 mph 1007.3mb 66f
12:24 8 10 mph 1007.5mb 65f
12:18 8 10 mph 1007.2mb 65f
12:12 8 11 mph 1007.5mb 65f
12:06 10 13 mph 1007.3mb 65f
12:00 6 8 mph 1007.4mb 65f
11:54 6 9 mph 1007.5mb 65f
11:48 9 13 mph 1007.5mb 65f
11:42 8 10 mph 1007.5mb 65f
11:36 9 11 mph 1007.4mb 64f
11:30 10 13 mph 1007.3mb 64f
11:24 8 10 mph 1007.3mb 64f
11:18 14 15 mph 1007.3mb 64f
11:12 8 10 mph 1007.2mb 64f
11:06 9 11 mph 1007.4mb 64f
11:00 8 10 mph 1007.4mb 63f
10:54 11 14 mph 1007.3mb 63f
10:48 8 13 mph 1007.1mb 63f
10:42 10 14 mph 1007mb 63f
10:36 10 15 mph 1006.9mb 63f
10:30 8 13 mph 1006.7mb 62f
10:24 8 11 mph 1006.7mb 62f
10:18 13 15 mph 1006.5mb 62f
10:12 11 14 mph 1006.6mb 62f
10:06 10 14 mph 1006.7mb 61f
10:00 11 14 mph 1006.4mb 61f
9:54 10 11 mph 1006.6mb 60f
9:48 10 11 mph 1006.6mb 60f
9:42 9 10 mph 1006.7mb 60f
9:36 10 13 mph 1006.7mb 60f
9:30 8 10 mph 1006.9mb 60f
9:24 7 8 mph 1007mb 60f
9:18 7 9 mph 1007mb 60f
9:12 6 8 mph 1007.1mb 60f
9:06 6 9 mph 1007.2mb 60f
9:00 7 9 mph 1007.3mb 59f
8:54 6 8 mph 1007.2mb 59f
8:48 6 7 mph 1007.3mb 59f
8:42 7 8 mph 1007.3mb 60f
8:36 6 7 mph 1007.3mb 60f
8:30 6 9 mph 1007.4mb 59f
8:24 3 6 mph 1007.5mb 59f
8:18 5 7 mph 1007.3mb 59f
8:12 6 8 mph 1007.1mb 59f
8:06 5 6 mph 1007.2mb 59f
8:00 3 5 mph 1007.2mb 59f
7:54 6 7 mph 1007.2mb 59f
7:48 2 5 mph 1007.2mb 58f
7:42 2 5 mph 1007.1mb 58f
7:36 3 6 mph 1007mb 58f
7:30 5 6 mph 1007mb 58f
7:24 5 7 mph 1006.9mb 58f
7:18 5 6 mph 1006.9mb 58f
7:12 3 6 mph 1006.9mb 58f
7:06 3 5 mph 1006.8mb 58f
7:00 3 5 mph 1006.9mb 58f
6:54 5 6 mph 1007mb 58f
6:48 5 6 mph 1006.9mb 58f
6:42 3 5 mph 1006.7mb 58f
6:36 3 7 mph 1006.6mb 58f
6:30 5 7 mph 1006.6mb 58f
6:24 3 6 mph 1006.7mb 58f
6:18 5 5 mph 1006.7mb 58f
6:12 5 6 mph 1006.8mb 58f
6:06 3 5 mph 1006.9mb 58f
6:00 5 7 mph 1007mb 58f
5:54 2 3 mph 1007.1mb 58f
5:48 3 3 mph 1007.1mb 58f
5:42 3 3 mph 1007.3mb 58f
5:36 2 2 mph 1007.3mb 58f
5:30 2 2 mph 1007.3mb 58f
5:24 2 2 mph 1007.2mb 58f
5:18 1 2 mph 1007.1mb 58f
5:12 2 2 mph 1007.1mb 58f
5:06 2 3 mph 1007mb 58f
5:00  -  0 mph 1007.1mb 58f
4:54  -  0 mph 1007mb 58f
4:48  -  0 mph 1006.9mb 58f
4:42  -  0 mph 1006.7mb 58f
4:36  -  0 mph 1006.8mb 58f
4:30  -  2 mph 1006.8mb 58f
4:24 1 2 mph 1006.8mb 58f
4:18  -  2 mph 1006.8mb 58f
4:12  -  1 mph 1006.9mb 58f
4:06 1 3 mph 1006.9mb 58f
4:00 3 5 mph 1006.8mb 58f
3:54 2 5 mph 1006.9mb 58f
3:48 1 2 mph 1006.9mb 58f
3:42 1 2 mph 1006.9mb 58f
3:36  -  1 mph 1007.1mb 58f
3:30 2 2 mph 1007.3mb 58f
3:24 2 3 mph 1007.4mb 58f
3:18 1 3 mph 1007.5mb 58f
3:12 5 8 mph 1007.4mb 58f
3:06 2 3 mph 1007.4mb 58f
3:00 2 3 mph 1007.4mb 58f
2:54 2 5 mph 1007.5mb 58f
2:48 2 3 mph 1007.5mb -
2:42 2 3 mph 1007.5mb -
2:36 2 3 mph 1007.6mb -
2:30  -  2 mph 1007.7mb 58f
2:24 1 3 mph 1007.8mb 58f
2:18 5 6 mph 1007.6mb 58f
2:12 1 3 mph 1007.7mb 58f
2:06 1 3 mph 1008.1mb 58f
2:00 3 5 mph 1008.2mb 58f
1:54 2 5 mph 1008.2mb 58f
1:48 5 10 mph 1008.1mb 58f
1:42 5 6 mph 1008.2mb 58f
1:36 6 7 mph 1008.2mb 58f
1:30 6 8 mph 1008.2mb 58f
1:24 6 7 mph 1008.1mb 58f
1:18 6 7 mph 1008mb 58f
1:12 6 6 mph 1008mb 58f
1:06 2 3 mph 1008.2mb 58f
1:00  -  2 mph 1008.1mb 58f
12:54 3 3 mph 1008.1mb 58f
12:48 3 5 mph 1008.2mb 58f
12:42 3 6 mph 1008.4mb 58f
12:36 3 5 mph 1008.6mb 58f
12:30 3 6 mph 1008.8mb 58f
12:24 3 6 mph 1008.9mb 58f
12:18 6 7 mph 1009.1mb 58f
12:12 5 7 mph 1009.1mb 58f
12:06 3 6 mph 1009.1mb 58f
12:00 5 6 mph 1009.2mb 58f
Di 05/23 11:54 5 7 mph 1009.3mb 58f
11:48 5 6 mph 1009.3mb 58f
11:42 7 8 mph 1009.3mb 57f
11:36 5 7 mph 1009.4mb 58f
11:30 6 7 mph 1009.5mb 58f
11:24 6 9 mph 1009.5mb 58f
11:18 5 7 mph 1009.5mb 58f
11:12 5 6 mph 1009.4mb 58f
11:06 5 6 mph 1009.4mb 58f
11:00 3 6 mph 1009.5mb 58f
10:54 5 7 mph 1009.4mb 58f
10:48 6 8 mph 1009.5mb 58f
10:42 6 9 mph 1009.5mb 58f
10:36 3 5 mph 1009.6mb 59f
10:30 5 8 mph 1009.6mb 59f
10:24 6 8 mph 1009.6mb 59f
10:18 5 6 mph 1009.7mb 59f
10:12 7 8 mph 1009.7mb 59f
10:06 7 8 mph 1009.7mb 60f
10:00 5 6 mph 1009.7mb 60f
9:54 3 5 mph 1009.5mb 60f
9:48 2 3 mph 1009.6mb 60f
9:42 2 3 mph 1009.6mb 60f
9:36 5 5 mph 1009.4mb 60f
9:30 1 1 mph 1009.4mb 60f
9:24 2 3 mph 1009.4mb 60f
9:18 2 3 mph 1009.6mb 60f
9:12 3 5 mph 1009.6mb 59f
9:06 6 7 mph 1009.7mb 59f
9:00 6 8 mph 1009.6mb 59f
8:54 5 7 mph 1009.5mb 60f
8:48 6 9 mph 1009.6mb 60f
8:42 7 10 mph 1009.4mb 60f
8:36 6 9 mph 1009.4mb 60f
8:30 6 9 mph 1009.2mb 61f
8:24 6 8 mph 1009.4mb 61f
8:18 5 7 mph 1009.4mb 61f
8:12 6 9 mph 1009.1mb 62f
8:06 7 8 mph 1009.1mb 62f
8:00 7 8 mph 1008.9mb 62f
7:54 7 8 mph 1009mb 63f
7:48 7 10 mph 1009mb 63f
7:42 7 9 mph 1008.9mb 64f
7:36 6 7 mph 1009mb 64f
7:30 5 7 mph 1008.9mb 64f
7:24 6 7 mph 1008.9mb 64f
7:18 6 7 mph 1008.9mb 64f
7:12 6 8 mph 1008.8mb 64f
7:06 7 9 mph 1008.8mb 65f
7:00 6 8 mph 1008.8mb 65f
6:54 6 8 mph 1008.8mb 65f
6:48 7 9 mph 1008.8mb 65f
6:42 8 10 mph 1008.7mb 65f
6:36 9 10 mph 1008.7mb 66f
6:30 7 9 mph 1008.7mb 68f
6:24 6 7 mph 1008.8mb 68f
6:18 5 6 mph 1008.8mb 66f
6:12 7 8 mph 1008.7mb 67f
6:06  -  1 mph 1008.5mb 70f
6:00  -  3 mph 1008.6mb 69f
5:54 3 5 mph 1008.8mb 69f
5:48 3 3 mph 1008.8mb 68f
5:42 2 2 mph 1008.8mb 71f
5:36 1 1 mph 1008.7mb 71f
5:30 1 2 mph 1008.7mb 70f
5:24 3 3 mph 1008.7mb 70f
5:18 3 3 mph 1008.7mb 69f
5:12 5 5 mph 1008.8mb 69f
5:06 3 5 mph 1008.9mb 69f
5:00 2 3 mph 1008.9mb 70f
4:54  -  2 mph 1008.8mb 70f
4:48  -  2 mph 1008.8mb 70f
4:42 2 2 mph 1009mb 70f
4:36 2 2 mph 1008.9mb 70f
4:30 2 3 mph 1008.8mb 70f
4:24 3 5 mph 1008.9mb 69f
4:18 5 6 mph 1009mb 71f
4:12 5 6 mph 1009mb 71f
4:06 3 5 mph 1009.1mb 71f
4:00 7 9 mph 1009.3mb 71f
3:54 9 11 mph 1009.3mb 71f
3:48 7 9 mph 1009.4mb 72f
3:42 9 11 mph 1009.4mb 71f
3:36 9 11 mph 1009.4mb 72f
3:30 9 11 mph 1009.4mb 71f
3:24 9 14 mph 1009.3mb 71f
3:18 7 9 mph 1009.4mb 72f
3:12 8 11 mph 1009.4mb 71f
3:06 6 10 mph 1009.4mb 72f
3:00 7 9 mph 1009.4mb 73f
2:54 5 8 mph 1009.4mb 71f
2:48 9 17 mph 1009.4mb 71f
2:42 8 10 mph 1009.6mb 71f
2:36 13 16 mph 1009.6mb 72f
2:30 11 17 mph 1009.4mb 72f
2:24 9 14 mph 1009.5mb 73f
2:18 7 10 mph 1009.5mb 73f
2:12 6 13 mph 1009.6mb 71f
2:06 8 13 mph 1009.6mb 71f
2:00 9 11 mph 1009.8mb 71f
1:54 10 14 mph 1009.9mb 71f
1:48 9 14 mph 1010mb 72f
1:42 6 9 mph 1010.1mb 71f
1:36 6 8 mph 1010.2mb 70f
1:30 6 7 mph 1010.1mb 70f
1:24 6 6 mph 1010.2mb 70f
1:18 5 6 mph 1010.3mb 70f
1:12 6 7 mph 1010.4mb 69f
1:06 3 6 mph 1010.6mb 68f
1:00 7 9 mph 1010.7mb 68f
12:54 8 10 mph 1010.8mb 68f
12:48 9 14 mph 1010.8mb 67f
12:42 7 9 mph 1010.8mb 68f
12:36 8 13 mph 1011.2mb 67f
12:30 9 14 mph 1011.2mb 67f
12:24 11 15 mph 1011.5mb 67f
12:18 9 11 mph 1011.6mb 67f
12:12 10 14 mph 1011.7mb 67f
12:06 8 11 mph 1011.8mb 66f
12:00 9 11 mph 1011.8mb 66f
11:54 10 14 mph 1011.7mb 66f
11:48 10 14 mph 1011.8mb 66f
11:42 10 16 mph 1011.6mb 65f
11:36 8 11 mph 1011.6mb 65f
11:30 6 10 mph 1011.6mb 65f
11:24 10 13 mph 1011.6mb 64f
11:18 14 17 mph 1011.4mb 64f
11:12 9 14 mph 1011.8mb 64f
11:06 10 14 mph 1011.9mb 64f
11:00 13 16 mph 1011.9mb 64f
10:54 13 17 mph 1011.9mb 64f
10:48 13 16 mph 1012mb 63f
10:42 9 14 mph 1012mb 63f
10:36 14 17 mph 1011.8mb 62f
10:30 11 16 mph 1011.9mb 62f
10:24 11 17 mph 1011.8mb 62f
10:18 10 14 mph 1011.9mb 62f
10:12 11 16 mph 1012.1mb 61f
10:06 9 14 mph 1012.1mb 61f
10:00 8 11 mph 1012.3mb 60f
9:54 7 9 mph 1012.5mb 60f
9:48 7 9 mph 1012.6mb 60f
9:42 7 10 mph 1012.5mb 60f
9:36 8 10 mph 1012.5mb 59f
9:30 10 14 mph 1012.4mb 59f
9:24 7 9 mph 1012.6mb 59f
9:18 8 10 mph 1012.5mb 58f
9:12 8 9 mph 1012.6mb 58f
9:06 9 11 mph 1012.6mb 58f
9:00 9 11 mph 1012.6mb 58f
8:54 9 11 mph 1012.4mb 58f
8:48 9 11 mph 1012.7mb 57f
8:42 10 15 mph 1012.8mb 56f
8:36 10 14 mph 1012.7mb 56f
8:30 10 15 mph 1012.6mb 56f
8:24 10 14 mph 1012.6mb 55f
8:18 15 18 mph 1012.6mb 55f
8:12 8 10 mph 1012.7mb 55f
8:06 10 13 mph 1012.7mb 55f
8:00 11 14 mph 1012.7mb 55f
7:54 9 11 mph 1012.5mb 55f
7:48 8 10 mph 1012.4mb 56f
7:42 6 8 mph 1012.5mb 56f
7:36 7 10 mph 1012.6mb 55f
7:30 8 9 mph 1012.4mb 55f
7:24 8 10 mph 1012.3mb 55f
7:18 8 10 mph 1012.5mb 55f
7:12 7 8 mph 1012.5mb 55f
7:06 5 7 mph 1012.6mb 55f
7:00 6 7 mph 1012.4mb 55f
6:54 7 9 mph 1012.4mb 55f
6:48 7 8 mph 1012.5mb 55f
6:42 6 7 mph 1012.5mb 55f
6:36 6 8 mph 1012.6mb 55f
6:30 6 7 mph 1012.6mb 55f
6:24 5 7 mph 1012.7mb 55f
6:18 5 6 mph 1012.6mb 55f
6:12 5 6 mph 1012.5mb 55f
6:06 5 6 mph 1012.3mb 55f
6:00 6 7 mph 1012.3mb 55f
5:54 3 5 mph 1012.3mb 55f
5:48 6 7 mph 1012.2mb 55f
5:42 7 9 mph 1012.1mb 55f
5:36 6 7 mph 1012.1mb 55f
5:30 5 6 mph 1012.2mb 55f
5:24 6 7 mph 1012.2mb 55f
5:18 7 9 mph 1012mb 55f
5:12 8 11 mph 1012mb 55f
5:06 10 13 mph 1012mb 55f
5:00 8 10 mph 1012mb 55f
4:54 8 11 mph 1011.9mb 56f
4:48 7 8 mph 1011.9mb 56f
4:42 7 9 mph 1012mb 56f
4:36 8 10 mph 1011.9mb 56f
4:30 9 11 mph 1011.9mb 56f
4:24 9 10 mph 1012mb 56f
4:18 9 11 mph 1012mb 56f
4:12 10 13 mph 1012mb 56f
4:06 8 10 mph 1011.9mb 57f
4:00 8 10 mph 1011.9mb 57f
3:54 9 11 mph 1011.8mb 57f
3:48 9 10 mph 1011.8mb 58f
3:42 8 10 mph 1011.8mb 58f
3:36 8 10 mph 1011.9mb 58f
3:30 7 8 mph 1011.8mb 58f
3:24 5 6 mph 1011.8mb 58f
3:18 5 6 mph 1011.7mb 58f
3:12 5 6 mph 1011.5mb 58f
3:06 3 5 mph 1011.5mb 58f
3:00 2 2 mph 1011.5mb 58f
2:54 1 2 mph 1011.4mb 58f
2:48 2 3 mph 1011.6mb -
2:42 3 6 mph 1011.7mb -
2:36 6 6 mph 1011.9mb -
2:30 2 3 mph 1011.8mb 58f
2:24 3 3 mph 1011.9mb 58f
2:18 5 6 mph 1012mb 58f
2:12 6 7 mph 1012mb 58f
2:06 6 7 mph 1012.1mb 58f
2:00 6 7 mph 1012mb 58f
1:54 6 6 mph 1012mb 58f
1:48 3 5 mph 1011.9mb 58f
1:42 2 3 mph 1012mb 58f
1:36 5 5 mph 1012.1mb 58f
1:30 3 5 mph 1012.2mb 58f
1:24 2 3 mph 1012.1mb 58f
1:18 3 5 mph 1012.1mb 58f
1:12 5 6 mph 1012.3mb 58f
1:06 5 6 mph 1012.3mb 57f
1:00 6 8 mph 1012.4mb 58f
12:54 6 8 mph 1012.5mb 58f
12:48 8 11 mph 1012.7mb 58f
12:42 10 13 mph 1012.8mb 58f
12:36 11 13 mph 1012.9mb 58f
12:30 10 13 mph 1013mb 58f
12:24 9 10 mph 1013.1mb 58f
12:18 7 9 mph 1013.1mb 58f
12:12 7 8 mph 1013.1mb 58f
12:06 7 10 mph 1013.1mb 59f
12:00 8 11 mph 1013mb 59f
Mo 05/22 11:54 6 9 mph 1013.1mb 59f
11:48 7 15 mph 1013.1mb 59f
11:42 11 14 mph 1013mb 58f
11:36 14 22 mph 1013mb 58f
11:30 15 22 mph 1012.9mb 58f
11:24 16 22 mph 1012.9mb 58f
11:18 15 21 mph 1013.1mb 58f
11:12 15 22 mph 1013.2mb 58f
11:06 13 18 mph 1013.3mb 58f
11:00 15 23 mph 1013.3mb 58f
10:54 15 24 mph 1013.3mb 58f
10:48 16 21 mph 1013.4mb 58f
10:42 16 22 mph 1013.5mb 59f
10:36 17 24 mph 1013.5mb 59f
10:30 17 23 mph 1013.7mb 59f
10:24 14 22 mph 1013.9mb 59f
10:18 13 20 mph 1013.9mb 59f
10:12 11 17 mph 1014mb 59f
10:06 15 21 mph 1013.9mb 59f
10:00 16 24 mph 1013.9mb 58f
9:54 15 23 mph 1014.1mb 58f
9:48 17 23 mph 1014.1mb 58f
9:42 17 23 mph 1014.1mb 58f
9:36 16 22 mph 1014.2mb 58f
9:30 17 25 mph 1014.2mb 58f
9:24 17 23 mph 1014.4mb 58f
9:18 17 28 mph 1014.3mb 58f
9:12 21 28 mph 1014.2mb 58f
9:06 15 22 mph 1014.2mb 58f
9:00 16 22 mph 1014.4mb 58f
8:54 13 16 mph 1014.6mb 57f
8:48 15 21 mph 1014.8mb 57f
8:42 11 17 mph 1014.9mb 57f
8:36 11 18 mph 1015mb 57f
8:30 10 15 mph 1015mb 57f
8:24 13 16 mph 1015mb 57f
8:18 13 17 mph 1015mb 56f
8:12 13 18 mph 1015mb 56f
8:06 15 22 mph 1015mb 56f
8:00 14 21 mph 1015.1mb 56f
7:54 15 21 mph 1015.1mb 56f
7:48 14 18 mph 1015.2mb 56f
7:42 15 18 mph 1015.3mb 56f
7:36 11 20 mph 1015.4mb 56f
7:30 11 16 mph 1015.5mb 56f
7:24 8 13 mph 1015.7mb 55f
7:18 7 10 mph 1015.8mb 55f
7:12 7 10 mph 1015.8mb 55f
7:06 7 9 mph 1015.8mb 55f
7:00 7 11 mph 1015.8mb 55f
6:54 7 11 mph 1015.9mb 55f
6:48 9 17 mph 1016mb 55f
6:42 9 14 mph 1016.1mb 55f
6:36 8 14 mph 1016.1mb 55f
6:30 6 9 mph 1016.1mb 54f
6:24 6 8 mph 1016.3mb 54f
6:18 6 9 mph 1016.4mb 54f
6:12 7 10 mph 1016.6mb 54f
6:06 2 8 mph 1016.7mb 54f
6:00 3 6 mph 1016.8mb 54f
5:54 5 7 mph 1016.8mb 54f
5:48 2 8 mph 1016.7mb 54f
5:42 6 11 mph 1016.7mb 54f
5:36 7 11 mph 1016.8mb 53f
5:30 10 14 mph 1016.9mb 53f
5:24 9 15 mph 1016.9mb 53f
5:18 9 13 mph 1016.9mb 53f
5:12 11 16 mph 1017mb 53f
5:06 11 16 mph 1017.2mb 53f
5:00 10 14 mph 1017.3mb 53f
4:54 8 14 mph 1017.5mb 53f
4:48 7 10 mph 1017.7mb 52f
4:42 7 10 mph 1017.8mb 52f
4:36 6 10 mph 1017.9mb 52f
4:30 7 10 mph 1017.9mb 52f
4:24 10 16 mph 1018mb 52f
4:18 8 11 mph 1018.2mb 52f
4:12 9 14 mph 1018.3mb 52f
4:06 9 13 mph 1018.4mb 52f
4:00 9 13 mph 1018.6mb 52f
3:54 9 14 mph 1018.9mb 53f
3:48 11 15 mph 1018.9mb 53f
3:42 10 16 mph 1018.9mb 54f
3:36 6 10 mph 1018.9mb 55f
3:30 8 13 mph 1018.9mb 54f
3:24 10 16 mph 1018.8mb 54f
3:18 10 15 mph 1018.8mb 54f
3:12 9 14 mph 1018.8mb 54f
3:06 10 14 mph 1018.9mb 54f
3:00 11 17 mph 1018.9mb 54f
2:54 8 15 mph 1019mb 54f
2:48 10 14 mph 1019.2mb 54f
2:42 16 22 mph 1019.2mb 55f
2:36 14 18 mph 1019.2mb 55f
2:30 16 22 mph 1019.2mb 56f
2:24 11 15 mph 1019.3mb 56f
2:18 13 16 mph 1019.2mb 56f
2:12 11 16 mph 1019.3mb 56f
2:06 13 16 mph 1019.4mb 56f
2:00 13 15 mph 1019.5mb 56f
1:54 11 16 mph 1019.4mb 56f
1:48 13 17 mph 1019.4mb 56f
1:42 11 17 mph 1019.4mb 56f
1:36 15 18 mph 1019.5mb 56f
1:30 14 17 mph 1019.5mb 56f
1:24 15 20 mph 1019.5mb 56f
1:18 13 20 mph 1019.6mb 56f
1:12 14 18 mph 1019.7mb 56f
1:06 14 17 mph 1019.8mb 56f
1:00 13 18 mph 1019.8mb 56f
12:54 10 14 mph 1020mb 56f
12:48 14 17 mph 1020.1mb 56f
12:42 14 18 mph 1020.2mb 55f
12:36 11 17 mph 1020.3mb 56f
12:30 13 17 mph 1020.2mb 56f
12:24 9 13 mph 1020.4mb 56f
12:18 10 15 mph 1020.4mb 56f
12:12 9 16 mph 1020.4mb 56f
12:06 9 14 mph 1020.4mb 56f
12:00 10 15 mph 1020.6mb 56f
11:54 10 13 mph 1020.8mb 56f
11:48 11 16 mph 1021mb 56f
11:42 9 13 mph 1021.2mb 56f
11:36 11 15 mph 1021mb 56f
11:30 11 16 mph 1021.1mb 56f
11:24 9 13 mph 1021.2mb 56f
11:18 10 14 mph 1021.2mb 56f
11:12 8 11 mph 1021.3mb 56f